createdAt,value
2022-12-13T00:00:03.423Z,63.60
2022-12-13T00:02:06.446Z,63.50
2022-12-13T00:04:11.360Z,63.20
2022-12-13T00:06:14.796Z,63.20
2022-12-13T00:08:17.768Z,63.00
2022-12-13T00:10:20.634Z,63.10
2022-12-13T00:12:23.444Z,63.10
2022-12-13T00:14:26.417Z,63.00
2022-12-13T00:16:30.764Z,63.00
2022-12-13T00:18:34.679Z,63.30
2022-12-13T00:20:41.060Z,63.30
2022-12-13T00:22:43.910Z,63.40
2022-12-13T00:24:46.742Z,63.10
2022-12-13T00:26:49.661Z,63.20
2022-12-13T00:28:54.045Z,63.20
2022-12-13T00:31:04.547Z,63.10
2022-12-13T00:33:22.590Z,63.20
2022-12-13T00:35:25.597Z,63.10
2022-12-13T00:37:28.430Z,62.90
2022-12-13T00:39:31.565Z,62.70
2022-12-13T00:41:36.201Z,62.60
2022-12-13T00:43:39.022Z,62.60
2022-12-13T00:45:42.492Z,62.60
2022-12-13T00:47:46.753Z,62.50
2022-12-13T00:49:50.940Z,62.40
2022-12-13T00:51:53.758Z,62.50
2022-12-13T00:53:56.964Z,62.30
2022-12-13T00:55:59.834Z,62.50
2022-12-13T00:58:02.613Z,62.90
2022-12-13T01:00:07.114Z,62.30
2022-12-13T01:02:09.949Z,62.30
2022-12-13T01:04:13.113Z,62.10
2022-12-13T01:06:20.213Z,62.00
2022-12-13T01:08:23.230Z,62.20
2022-12-13T01:10:26.082Z,62.20
2022-12-13T01:12:28.928Z,62.60
2022-12-13T01:14:31.974Z,62.60
2022-12-13T01:16:34.894Z,62.70
2022-12-13T01:18:38.342Z,62.60
2022-12-13T01:20:41.679Z,62.60
2022-12-13T01:22:45.885Z,62.50
2022-12-13T01:24:48.784Z,62.20
2022-12-13T01:26:52.046Z,62.30
2022-12-13T01:29:00.233Z,62.60
2022-12-13T01:31:06.078Z,62.60
2022-12-13T01:33:13.869Z,62.50
2022-12-13T01:35:17.755Z,62.50
2022-12-13T01:37:20.954Z,62.60
2022-12-13T01:39:31.123Z,62.50
2022-12-13T01:41:41.738Z,62.30
2022-12-13T01:44:05.968Z,62.40
2022-12-13T01:46:09.071Z,62.10
2022-12-13T01:48:17.555Z,62.10
2022-12-13T01:50:25.605Z,62.00
2022-12-13T01:52:31.446Z,62.20
2022-12-13T01:54:46.558Z,62.20
2022-12-13T01:56:52.960Z,62.20
2022-12-13T01:59:05.435Z,62.10
2022-12-13T02:01:08.358Z,62.30
2022-12-13T02:03:20.953Z,61.90
2022-12-13T02:05:29.676Z,62.20
2022-12-13T02:07:34.925Z,62.40
2022-12-13T02:09:39.567Z,62.50
2022-12-13T02:11:44.806Z,62.40
2022-12-13T02:13:47.609Z,62.30
2022-12-13T02:15:59.375Z,62.20
2022-12-13T02:18:15.706Z,62.60
2022-12-13T02:21:02.001Z,62.50
2022-12-13T02:23:25.309Z,62.60
2022-12-13T02:25:50.987Z,62.60
2022-12-13T02:28:31.186Z,62.80
2022-12-13T02:30:40.597Z,62.40
2022-12-13T02:32:54.770Z,62.60
2022-12-13T02:35:03.386Z,62.50
2022-12-13T02:37:17.525Z,62.20
2022-12-13T02:39:30.593Z,62.30
2022-12-13T02:41:40.042Z,62.60
2022-12-13T02:43:49.074Z,62.70
2022-12-13T02:45:56.092Z,62.20
2022-12-13T02:48:02.780Z,62.50
2022-12-13T02:50:09.102Z,62.60
2022-12-13T02:52:14.572Z,62.70
2022-12-13T02:54:25.889Z,62.50
2022-12-13T02:56:28.789Z,62.60
2022-12-13T02:58:38.077Z,62.50
2022-12-13T03:00:52.887Z,62.40
2022-12-13T03:03:10.771Z,62.30
2022-12-13T03:05:39.262Z,62.00
2022-12-13T03:07:51.548Z,62.10
2022-12-13T03:09:59.983Z,62.10
2022-12-13T03:12:37.281Z,62.10
2022-12-13T03:14:49.029Z,61.80
2022-12-13T03:16:53.785Z,62.00
2022-12-13T03:19:00.648Z,61.90
2022-12-13T03:21:10.375Z,61.70
2022-12-13T03:23:13.367Z,61.80
2022-12-13T03:25:31.630Z,61.90
2022-12-13T03:27:35.138Z,61.90
2022-12-13T03:29:37.957Z,61.80
2022-12-13T03:31:40.916Z,61.70
2022-12-13T03:33:43.748Z,61.60
2022-12-13T03:35:47.891Z,61.40
2022-12-13T03:37:51.141Z,61.50
2022-12-13T03:39:54.141Z,61.70
2022-12-13T03:41:57.006Z,62.00
2022-12-13T03:44:00.265Z,62.00
2022-12-13T03:46:03.151Z,61.90
2022-12-13T03:48:06.264Z,61.90
2022-12-13T03:50:27.089Z,61.90
2022-12-13T03:52:31.675Z,62.00
2022-12-13T03:54:34.476Z,61.60
2022-12-13T03:56:37.342Z,61.50
2022-12-13T03:58:42.117Z,61.60
2022-12-13T04:00:45.414Z,61.40
2022-12-13T04:02:48.433Z,61.40
2022-12-13T04:04:51.327Z,61.40
2022-12-13T04:06:54.139Z,61.70
2022-12-13T04:08:58.384Z,61.70
2022-12-13T04:11:21.242Z,61.50
2022-12-13T04:13:34.888Z,61.40
2022-12-13T04:15:37.791Z,61.40
2022-12-13T04:17:40.621Z,61.10
2022-12-13T04:19:43.446Z,61.40
2022-12-13T04:21:46.275Z,61.70
2022-12-13T04:23:49.086Z,61.60
2022-12-13T04:25:53.330Z,62.10
2022-12-13T04:27:56.135Z,61.30
2022-12-13T04:29:59.012Z,61.50
2022-12-13T04:32:01.844Z,61.50
2022-12-13T04:34:04.698Z,61.60
2022-12-13T04:36:08.565Z,61.60
2022-12-13T04:38:11.388Z,61.40
2022-12-13T04:40:14.317Z,61.40
2022-12-13T04:42:26.167Z,61.50
2022-12-13T04:44:32.560Z,61.40
2022-12-13T04:46:36.874Z,61.10
2022-12-13T04:48:39.670Z,61.40
2022-12-13T04:50:42.487Z,61.50
2022-12-13T04:52:45.781Z,61.70
2022-12-13T04:54:48.603Z,61.70
2022-12-13T04:56:58.870Z,61.60
2022-12-13T04:59:03.257Z,61.60
2022-12-13T05:01:08.102Z,61.60
2022-12-13T05:03:10.978Z,61.60
2022-12-13T05:05:15.038Z,61.60
2022-12-13T05:07:18.037Z,61.40
2022-12-13T05:09:20.900Z,61.20
2022-12-13T05:11:23.755Z,61.40
2022-12-13T05:13:26.645Z,61.30
2022-12-13T05:15:31.130Z,61.10
2022-12-13T05:17:34.010Z,61.10
2022-12-13T05:19:36.836Z,61.80
2022-12-13T05:21:39.686Z,60.90
2022-12-13T05:23:42.463Z,61.10
2022-12-13T05:25:45.300Z,61.20
2022-12-13T05:27:48.166Z,61.20
2022-12-13T05:29:54.825Z,61.20
2022-12-13T05:32:08.279Z,61.10
2022-12-13T05:34:11.242Z,61.10
2022-12-13T05:36:14.110Z,60.90
2022-12-13T05:38:17.148Z,60.90
2022-12-13T05:40:20.219Z,60.90
2022-12-13T05:42:23.034Z,60.70
2022-12-13T05:44:25.837Z,60.70
2022-12-13T05:46:28.655Z,60.80
2022-12-13T05:48:33.071Z,61.00
2022-12-13T05:50:35.925Z,60.70
2022-12-13T05:52:38.861Z,60.80
2022-12-13T05:54:42.887Z,60.80
2022-12-13T05:56:45.945Z,61.00
2022-12-13T05:58:48.833Z,61.00
2022-12-13T06:00:56.591Z,60.70
2022-12-13T06:03:00.975Z,60.70
2022-12-13T06:05:06.500Z,60.80
2022-12-13T06:07:09.329Z,60.80
2022-12-13T06:09:12.413Z,60.70
2022-12-13T06:11:31.158Z,60.60
2022-12-13T06:13:34.440Z,60.60
2022-12-13T06:15:45.054Z,60.50
2022-12-13T06:17:47.883Z,60.60
2022-12-13T06:19:50.974Z,60.60
2022-12-13T06:21:56.526Z,60.80
2022-12-13T06:23:59.509Z,60.80
2022-12-13T06:26:04.001Z,60.80
2022-12-13T06:28:06.899Z,60.60
2022-12-13T06:30:10.870Z,60.70
2022-12-13T06:32:13.879Z,60.70
2022-12-13T06:34:16.647Z,60.70
2022-12-13T06:36:19.626Z,60.60
2022-12-13T06:38:31.356Z,60.50
2022-12-13T06:40:35.017Z,60.40
2022-12-13T06:42:37.879Z,60.60
2022-12-13T06:44:42.743Z,60.50
2022-12-13T06:46:45.843Z,60.80
2022-12-13T06:48:49.014Z,60.70
2022-12-13T06:50:51.999Z,60.70
2022-12-13T06:52:54.812Z,60.80
2022-12-13T06:55:00.074Z,60.60
2022-12-13T06:57:02.971Z,60.70
2022-12-13T06:59:05.788Z,60.80
2022-12-13T07:01:14.537Z,60.70
2022-12-13T07:03:18.343Z,60.50
2022-12-13T07:05:21.349Z,60.50
2022-12-13T07:07:25.686Z,60.50
2022-12-13T07:09:28.483Z,61.00
2022-12-13T07:11:34.503Z,60.30
2022-12-13T07:13:37.311Z,60.30
2022-12-13T07:15:40.548Z,60.30
2022-12-13T07:17:43.743Z,60.30
2022-12-13T07:19:47.081Z,60.40
2022-12-13T07:21:50.311Z,60.50
2022-12-13T07:23:55.064Z,60.60
2022-12-13T07:25:58.461Z,60.30
2022-12-13T07:28:04.070Z,60.40
2022-12-13T07:30:07.917Z,60.50
2022-12-13T07:32:12.663Z,60.50
2022-12-13T07:34:15.919Z,60.50
2022-12-13T07:36:20.784Z,60.30
2022-12-13T07:38:23.596Z,60.30
2022-12-13T07:40:26.891Z,60.30
2022-12-13T07:42:29.739Z,60.40
2022-12-13T07:44:33.910Z,60.60
2022-12-13T07:46:36.857Z,60.70
2022-12-13T07:48:39.814Z,60.60
2022-12-13T07:50:43.153Z,60.40
2022-12-13T07:52:45.964Z,60.30
2022-12-13T07:54:48.778Z,60.30
2022-12-13T07:56:51.692Z,60.20
2022-12-13T07:58:54.515Z,60.10
2022-12-13T08:01:02.902Z,60.20
2022-12-13T08:03:06.749Z,60.40
2022-12-13T08:05:26.404Z,60.60
2022-12-13T08:07:30.058Z,60.70
2022-12-13T08:09:32.904Z,60.90
2022-12-13T08:11:35.891Z,60.90
2022-12-13T08:13:40.643Z,61.00
2022-12-13T08:15:43.499Z,61.00
2022-12-13T08:17:47.686Z,60.90
2022-12-13T08:19:50.555Z,60.60
2022-12-13T08:21:55.802Z,60.90
2022-12-13T08:24:00.299Z,61.30
2022-12-13T08:26:04.603Z,61.50
2022-12-13T08:28:07.421Z,61.60
2022-12-13T08:30:11.403Z,61.70
2022-12-13T08:32:14.531Z,61.90
2022-12-13T08:34:18.681Z,61.80
2022-12-13T08:36:24.119Z,61.50
2022-12-13T08:38:26.974Z,61.30
2022-12-13T08:40:29.949Z,61.50
2022-12-13T08:42:32.767Z,61.60
2022-12-13T08:44:35.590Z,61.60
2022-12-13T08:46:38.501Z,61.50
2022-12-13T08:48:43.960Z,61.50
2022-12-13T08:50:49.592Z,61.70
2022-12-13T08:52:53.444Z,62.00
2022-12-13T08:54:56.288Z,62.30
2022-12-13T08:56:59.435Z,62.30
2022-12-13T08:59:02.314Z,62.30
2022-12-13T09:01:07.442Z,62.50
2022-12-13T09:03:10.533Z,62.30
2022-12-13T09:05:33.457Z,62.50
2022-12-13T09:07:39.531Z,62.50
2022-12-13T09:09:42.380Z,62.50
2022-12-13T09:11:45.346Z,62.80
2022-12-13T09:13:48.438Z,62.50
2022-12-13T09:15:51.378Z,62.80
2022-12-13T09:17:54.427Z,63.00
2022-12-13T09:19:57.915Z,63.00
2022-12-13T09:22:02.128Z,63.00
2022-12-13T09:24:07.470Z,62.70
2022-12-13T09:26:27.240Z,62.80
2022-12-13T09:28:31.153Z,63.20
2022-12-13T09:30:34.005Z,63.30
2022-12-13T09:32:36.809Z,63.10
2022-12-13T09:34:39.679Z,63.30
2022-12-13T09:36:42.611Z,63.30
2022-12-13T09:38:46.090Z,63.20
2022-12-13T09:40:58.878Z,63.10
2022-12-13T09:43:13.410Z,62.90
2022-12-13T09:45:32.100Z,63.10
2022-12-13T09:47:37.900Z,63.10
2022-12-13T09:49:52.151Z,63.10
2022-12-13T09:52:11.181Z,63.20
2022-12-13T09:54:20.071Z,63.20
2022-12-13T09:56:25.146Z,63.00
2022-12-13T09:58:31.784Z,63.30
2022-12-13T10:00:37.062Z,63.40
2022-12-13T10:02:45.496Z,63.30
2022-12-13T10:04:48.609Z,63.50
2022-12-13T10:06:54.303Z,63.50
2022-12-13T10:09:00.440Z,63.40
2022-12-13T10:11:03.597Z,63.30
2022-12-13T10:13:14.633Z,63.40
2022-12-13T10:15:22.206Z,63.50
2022-12-13T10:17:29.955Z,63.60
2022-12-13T10:19:44.609Z,63.60
2022-12-13T10:21:48.646Z,63.40
2022-12-13T10:26:23.731Z,63.00
2022-12-13T10:28:31.894Z,63.20
2022-12-13T10:30:42.817Z,63.30
2022-12-13T10:32:55.405Z,63.30
2022-12-13T10:34:58.274Z,63.30
2022-12-13T10:37:02.287Z,63.30
2022-12-13T10:39:05.708Z,63.00
2022-12-13T10:41:32.701Z,63.20
2022-12-13T10:43:38.114Z,63.10
2022-12-13T10:45:41.828Z,63.30
2022-12-13T10:47:45.844Z,63.20
2022-12-13T10:49:51.937Z,63.40
2022-12-13T10:52:03.139Z,63.20
2022-12-13T10:54:06.738Z,63.40
2022-12-13T10:56:09.606Z,63.20
2022-12-13T10:58:20.889Z,63.20
2022-12-13T11:00:38.852Z,63.20
2022-12-13T11:02:41.986Z,63.70
2022-12-13T11:04:45.168Z,63.60
2022-12-13T11:06:49.376Z,63.40
2022-12-13T11:08:53.221Z,63.50
2022-12-13T11:11:01.371Z,63.40
2022-12-13T11:13:06.313Z,63.30
2022-12-13T11:15:17.591Z,63.40
2022-12-13T11:17:29.196Z,63.50
2022-12-13T11:19:38.209Z,63.60
2022-12-13T11:21:41.156Z,63.50
2022-12-13T11:23:46.223Z,63.70
2022-12-13T11:25:49.787Z,63.50
2022-12-13T11:28:26.554Z,63.50
2022-12-13T11:30:38.513Z,63.50
2022-12-13T11:33:04.076Z,64.20
2022-12-13T11:35:14.646Z,63.80
2022-12-13T11:37:27.294Z,63.90
2022-12-13T11:39:33.511Z,63.70
2022-12-13T11:41:41.125Z,63.60
2022-12-13T11:43:51.140Z,63.60
2022-12-13T11:45:57.322Z,63.60
2022-12-13T11:48:06.444Z,63.90
2022-12-13T11:50:22.011Z,64.10
2022-12-13T11:52:40.880Z,64.10
2022-12-13T11:54:50.738Z,64.30
2022-12-13T11:57:00.676Z,64.20
2022-12-13T11:59:20.578Z,64.20
2022-12-13T12:01:31.585Z,64.10
2022-12-13T12:03:48.199Z,64.30
2022-12-13T12:05:55.774Z,64.30
2022-12-13T12:08:31.775Z,64.00
2022-12-13T12:10:35.779Z,64.20
2022-12-13T12:12:42.245Z,64.20
2022-12-13T12:14:53.172Z,64.50
2022-12-13T12:16:59.390Z,64.60
2022-12-13T12:19:03.706Z,64.50
2022-12-13T12:21:21.258Z,64.70
2022-12-13T12:23:40.000Z,64.70
2022-12-13T12:25:52.861Z,64.80
2022-12-13T12:28:02.928Z,64.80
2022-12-13T12:30:13.900Z,64.70
2022-12-13T12:32:34.489Z,64.60
2022-12-13T12:34:47.059Z,64.50
2022-12-13T12:37:03.328Z,64.50
2022-12-13T12:39:28.531Z,64.50
2022-12-13T12:41:41.989Z,64.60
2022-12-13T12:43:55.003Z,64.70
2022-12-13T12:46:18.202Z,64.70
2022-12-13T12:51:07.910Z,64.50
2022-12-13T12:53:30.099Z,64.60
2022-12-13T12:55:49.102Z,64.70
2022-12-13T12:58:03.141Z,64.70
2022-12-13T13:00:12.027Z,64.80
2022-12-13T13:02:20.702Z,64.80
2022-12-13T13:04:30.122Z,64.60
2022-12-13T13:06:39.753Z,64.60
2022-12-13T13:08:50.134Z,64.60
2022-12-13T13:11:02.070Z,64.50
2022-12-13T13:13:12.187Z,64.60
2022-12-13T13:16:00.367Z,64.30
2022-12-13T13:18:03.550Z,64.50
2022-12-13T13:20:19.008Z,64.30
2022-12-13T13:22:32.542Z,64.50
2022-12-13T13:24:35.734Z,64.50
2022-12-13T13:26:40.521Z,64.40
2022-12-13T13:28:43.497Z,64.50
2022-12-13T13:31:03.723Z,64.50
2022-12-13T13:33:42.550Z,64.60
2022-12-13T13:35:50.218Z,65.00
2022-12-13T13:37:54.427Z,65.00
2022-12-13T13:40:00.533Z,65.00
2022-12-13T13:42:18.369Z,64.90
2022-12-13T13:45:03.163Z,64.80
2022-12-13T13:47:13.416Z,64.60
2022-12-13T13:49:16.288Z,64.30
2022-12-13T13:54:56.856Z,64.80
2022-12-13T13:57:33.215Z,64.70
2022-12-13T14:00:16.454Z,64.60
2022-12-13T14:02:57.001Z,64.60
2022-12-13T14:05:29.793Z,64.70
2022-12-13T14:08:03.816Z,64.80
2022-12-13T14:10:23.105Z,64.80
2022-12-13T14:13:03.372Z,64.70
2022-12-13T14:15:37.427Z,64.70
2022-12-13T14:18:06.309Z,64.60
2022-12-13T14:20:35.788Z,64.80
2022-12-13T14:22:44.537Z,64.90
2022-12-13T14:24:54.876Z,64.80
2022-12-13T14:27:12.247Z,64.90
2022-12-13T14:29:17.187Z,64.90
2022-12-13T14:31:24.033Z,64.80
2022-12-13T14:33:28.341Z,64.60
2022-12-13T14:35:33.573Z,64.80
2022-12-13T14:37:37.792Z,64.90
2022-12-13T14:39:46.073Z,65.00
2022-12-13T14:41:50.434Z,64.70
2022-12-13T14:46:33.882Z,65.30
2022-12-13T14:48:38.382Z,65.20
2022-12-13T14:50:44.618Z,65.10
2022-12-13T14:52:49.765Z,65.00
2022-12-13T14:54:57.845Z,65.00
2022-12-13T14:57:04.177Z,66.10
2022-12-13T14:59:14.035Z,65.30
2022-12-13T15:01:29.264Z,65.00
2022-12-13T15:03:35.108Z,65.00
2022-12-13T15:05:47.193Z,65.00
2022-12-13T15:07:53.605Z,65.00
2022-12-13T15:09:58.709Z,65.30
2022-12-13T15:12:24.030Z,65.30
2022-12-13T15:14:26.664Z,65.30
2022-12-13T15:16:30.602Z,65.50
2022-12-13T15:18:36.180Z,65.60
2022-12-13T15:20:41.746Z,65.70
2022-12-13T15:22:44.731Z,65.70
2022-12-13T15:24:48.660Z,66.20
2022-12-13T15:26:51.887Z,65.30
2022-12-13T15:28:56.445Z,65.40
2022-12-13T15:31:00.698Z,65.60
2022-12-13T15:33:04.767Z,65.70
2022-12-13T15:35:17.954Z,65.40
2022-12-13T15:37:33.238Z,65.30
2022-12-13T15:39:40.813Z,65.20
2022-12-13T15:41:51.657Z,65.10
2022-12-13T15:43:58.758Z,65.30
2022-12-13T15:46:01.869Z,65.50
2022-12-13T15:48:05.871Z,65.30
2022-12-13T15:50:09.444Z,65.00
2022-12-13T15:52:32.133Z,64.80
2022-12-13T15:54:35.342Z,64.50
2022-12-13T15:56:41.419Z,65.10
2022-12-13T15:58:53.257Z,65.50
2022-12-13T16:00:56.830Z,65.40
2022-12-13T16:03:09.303Z,65.30
2022-12-13T16:05:24.675Z,65.00
2022-12-13T16:07:35.705Z,65.00
2022-12-13T16:09:39.684Z,64.80
2022-12-13T16:11:52.148Z,64.80
2022-12-13T16:13:58.583Z,64.90
2022-12-13T16:16:09.385Z,64.80
2022-12-13T16:18:17.391Z,64.70
2022-12-13T16:20:22.098Z,64.60
2022-12-13T16:22:25.001Z,64.50
2022-12-13T16:24:29.158Z,64.30
2022-12-13T16:26:32.132Z,64.20
2022-12-13T16:28:34.947Z,64.20
2022-12-13T16:31:03.185Z,64.00
2022-12-13T16:33:27.337Z,64.40
2022-12-13T16:35:29.045Z,64.40
2022-12-13T16:37:32.099Z,64.60
2022-12-13T16:39:36.212Z,64.60
2022-12-13T16:41:41.647Z,64.60
2022-12-13T16:43:53.913Z,64.20
2022-12-13T16:45:56.918Z,64.40
2022-12-13T16:48:01.666Z,64.40
2022-12-13T16:50:10.821Z,64.70
2022-12-13T16:52:13.652Z,64.80
2022-12-13T16:54:16.482Z,64.60
2022-12-13T16:56:21.747Z,64.40
2022-12-13T16:58:25.920Z,64.50
2022-12-13T17:00:29.529Z,64.40
2022-12-13T17:02:32.444Z,64.20
2022-12-13T17:04:35.372Z,64.20
2022-12-13T17:06:38.729Z,64.40
2022-12-13T17:08:41.577Z,64.50
2022-12-13T17:10:45.882Z,64.40
2022-12-13T17:12:50.146Z,64.20
2022-12-13T17:14:52.965Z,64.20
2022-12-13T17:16:55.981Z,64.20
2022-12-13T17:18:59.335Z,64.00
2022-12-13T17:21:07.895Z,64.20
2022-12-13T17:23:16.224Z,63.90
2022-12-13T17:25:20.845Z,64.10
2022-12-13T17:27:23.635Z,64.30
2022-12-13T17:29:27.943Z,64.10
2022-12-13T17:31:35.179Z,64.30
2022-12-13T17:33:39.232Z,64.30
2022-12-13T17:35:42.026Z,64.60
2022-12-13T17:37:44.877Z,64.50
2022-12-13T17:39:47.871Z,64.40
2022-12-13T17:41:55.600Z,64.30
2022-12-13T17:44:00.808Z,64.20
2022-12-13T17:46:06.778Z,64.60
2022-12-13T17:48:09.619Z,64.50
2022-12-13T17:50:12.569Z,64.50
2022-12-13T17:52:15.409Z,64.10
2022-12-13T17:54:18.324Z,64.20
2022-12-13T17:56:22.038Z,64.40
2022-12-13T17:58:25.267Z,64.50
2022-12-13T18:00:28.550Z,64.40
2022-12-13T18:02:32.725Z,64.30
2022-12-13T18:04:35.603Z,64.40
2022-12-13T18:06:38.422Z,64.50
2022-12-13T18:08:44.302Z,64.40
2022-12-13T18:11:15.686Z,64.30
2022-12-13T18:13:16.986Z,64.40
2022-12-13T18:15:19.801Z,64.20
2022-12-13T18:17:24.403Z,64.20
2022-12-13T18:19:39.264Z,64.00
2022-12-13T18:21:43.215Z,64.10
2022-12-13T18:23:55.207Z,63.90
2022-12-13T18:26:00.761Z,63.80
2022-12-13T18:28:03.644Z,63.80
2022-12-13T18:30:07.253Z,63.70
2022-12-13T18:32:10.363Z,63.60
2022-12-13T18:34:13.238Z,63.60
2022-12-13T18:36:17.814Z,63.90
2022-12-13T18:38:21.022Z,63.70
2022-12-13T18:40:23.829Z,63.70
2022-12-13T18:42:26.701Z,63.70
2022-12-13T18:44:29.511Z,63.70
2022-12-13T18:46:34.703Z,63.50
2022-12-13T18:48:37.682Z,63.60
2022-12-13T18:50:45.575Z,63.40
2022-12-13T18:52:55.370Z,63.50
2022-12-13T18:54:58.306Z,63.40
2022-12-13T18:57:01.106Z,63.30
2022-12-13T18:59:03.908Z,63.40
2022-12-13T19:01:09.147Z,63.40
2022-12-13T19:03:12.093Z,63.40
2022-12-13T19:05:14.986Z,63.20
2022-12-13T19:07:17.963Z,63.30
2022-12-13T19:09:22.159Z,63.80
2022-12-13T19:11:25.885Z,63.00
2022-12-13T19:13:29.971Z,63.00
2022-12-13T19:15:33.018Z,63.20
2022-12-13T19:17:35.807Z,63.20
2022-12-13T19:19:38.663Z,63.40
2022-12-13T19:21:41.494Z,63.50
2022-12-13T19:23:48.313Z,63.10
2022-12-13T19:25:54.267Z,63.20
2022-12-13T19:27:57.618Z,63.30
2022-12-13T19:30:00.443Z,63.40
2022-12-13T19:32:03.871Z,63.30
2022-12-13T19:34:06.671Z,63.30
2022-12-13T19:36:09.949Z,63.30
2022-12-13T19:38:12.875Z,64.10
2022-12-13T19:40:15.814Z,63.30
2022-12-13T19:42:19.968Z,63.40
2022-12-13T19:44:22.783Z,63.20
2022-12-13T19:46:25.989Z,63.30
2022-12-13T19:48:28.845Z,63.20
2022-12-13T19:50:31.733Z,63.30
2022-12-13T19:52:34.758Z,63.40
2022-12-13T19:54:37.587Z,63.20
2022-12-13T19:56:40.377Z,63.40
2022-12-13T19:58:45.119Z,63.50
2022-12-13T20:00:48.019Z,63.40
2022-12-13T20:02:51.118Z,63.30
2022-12-13T20:04:54.028Z,63.30
2022-12-13T20:06:57.130Z,63.20
2022-12-13T20:08:59.949Z,63.30
2022-12-13T20:11:04.668Z,63.50
2022-12-13T20:13:07.507Z,63.50
2022-12-13T20:15:11.962Z,63.40
2022-12-13T20:17:14.759Z,63.40
2022-12-13T20:19:18.034Z,63.40
2022-12-13T20:21:20.934Z,63.30
2022-12-13T20:23:24.104Z,63.40
2022-12-13T20:25:27.170Z,63.40
2022-12-13T20:27:29.976Z,63.40
2022-12-13T20:29:32.956Z,63.40
2022-12-13T20:31:40.014Z,63.40
2022-12-13T20:33:43.245Z,63.50
2022-12-13T20:36:22.158Z,63.70
2022-12-13T20:38:09.507Z,63.70
2022-12-13T20:40:13.263Z,63.70
2022-12-13T20:42:16.236Z,63.70
2022-12-13T20:44:20.192Z,63.70
2022-12-13T20:46:23.863Z,63.70
2022-12-13T20:48:28.105Z,63.50
2022-12-13T20:50:30.988Z,63.70
2022-12-13T20:52:33.893Z,63.90
2022-12-13T20:54:37.129Z,63.90
2022-12-13T20:56:40.457Z,63.90
2022-12-13T20:58:43.959Z,63.90
2022-12-13T21:00:46.901Z,63.50
2022-12-13T21:02:49.788Z,63.60
2022-12-13T21:04:53.930Z,63.90
2022-12-13T21:06:56.869Z,63.90
2022-12-13T21:09:02.642Z,63.90
2022-12-13T21:11:20.390Z,63.90
2022-12-13T21:13:23.382Z,63.90
2022-12-13T21:15:26.591Z,63.90
2022-12-13T21:17:29.596Z,64.00
2022-12-13T21:19:39.767Z,64.60
2022-12-13T21:21:44.681Z,64.30
2022-12-13T21:23:48.409Z,64.30
2022-12-13T21:25:52.976Z,64.40
2022-12-13T21:27:55.794Z,64.50
2022-12-13T21:29:58.616Z,64.30
2022-12-13T21:32:01.632Z,64.30
2022-12-13T21:34:06.444Z,64.50
2022-12-13T21:36:10.660Z,64.50
2022-12-13T21:38:14.882Z,64.60
2022-12-13T21:40:18.234Z,64.50
2022-12-13T21:42:21.154Z,64.40
2022-12-13T21:44:24.286Z,64.50
2022-12-13T21:46:47.939Z,64.50
2022-12-13T21:48:53.416Z,64.60
2022-12-13T21:50:56.342Z,64.80
2022-12-13T21:52:59.171Z,64.80
2022-12-13T21:55:30.481Z,64.70
2022-12-13T21:58:00.824Z,64.70
2022-12-13T22:00:08.814Z,64.50
2022-12-13T22:02:15.880Z,64.50
2022-12-13T22:04:20.357Z,64.40
2022-12-13T22:06:23.203Z,64.30
2022-12-13T22:08:26.298Z,64.40
2022-12-13T22:10:30.799Z,64.40
2022-12-13T22:12:35.305Z,64.60
2022-12-13T22:14:38.532Z,64.50
2022-12-13T22:16:41.521Z,64.40
2022-12-13T22:18:44.385Z,64.50
2022-12-13T22:20:47.204Z,64.60
2022-12-13T22:22:50.050Z,64.60
2022-12-13T22:24:54.002Z,64.70
2022-12-13T22:26:58.386Z,64.60
2022-12-13T22:29:01.271Z,64.60
2022-12-13T22:31:04.115Z,64.40
2022-12-13T22:33:06.937Z,64.60
2022-12-13T22:35:11.783Z,64.70
2022-12-13T22:37:14.700Z,64.90
2022-12-13T22:39:19.183Z,64.70
2022-12-13T22:41:22.858Z,64.90
2022-12-13T22:43:27.089Z,64.90
2022-12-13T22:45:29.978Z,64.80
2022-12-13T22:47:32.784Z,64.80
2022-12-13T22:49:35.583Z,64.80
2022-12-13T22:51:39.158Z,64.80
2022-12-13T22:53:43.301Z,65.00
2022-12-13T22:55:46.105Z,65.00
2022-12-13T22:57:49.818Z,64.90
2022-12-13T22:59:54.056Z,64.80
2022-12-13T23:02:02.030Z,64.80
2022-12-13T23:04:07.052Z,65.00
2022-12-13T23:06:12.124Z,64.90
2022-12-13T23:08:14.953Z,64.80
2022-12-13T23:10:35.581Z,64.80
2022-12-13T23:12:56.012Z,64.80
2022-12-13T23:15:00.186Z,64.90
2022-12-13T23:17:03.565Z,64.90
2022-12-13T23:19:39.711Z,65.00
2022-12-13T23:21:30.843Z,65.00
2022-12-13T23:23:34.029Z,64.80
2022-12-13T23:25:36.853Z,64.90
2022-12-13T23:27:39.713Z,64.90
2022-12-13T23:29:42.607Z,65.10
2022-12-13T23:31:48.656Z,65.20
2022-12-13T23:33:52.381Z,65.30
2022-12-13T23:35:59.181Z,65.30
2022-12-13T23:38:02.070Z,65.10
2022-12-13T23:40:05.665Z,65.10
2022-12-13T23:42:08.599Z,65.30
2022-12-13T23:44:11.603Z,65.30
2022-12-13T23:46:17.685Z,65.50
2022-12-13T23:48:26.705Z,65.30
2022-12-13T23:50:30.509Z,65.10
2022-12-13T23:52:33.696Z,65.10
2022-12-13T23:54:36.544Z,65.10
2022-12-13T23:56:39.367Z,65.20
2022-12-13T23:58:44.043Z,65.30
